Tiempo atmosférico en la estación meteorológica de Cabo Busto, Asturias (63 m.)



Fecha
DESCASC
Temp. máxima en grados centígrados (hora)
DESCASC
Temp. mínima en grados centígrados (hora)
DESCASC
Temp. media en grados centígrados
DESCASC
Racha de viento máxima en m/sg (hora)
DESCASC
Velocidad máxima media en intervalos de 10 minutos(hora)
DESCASC
Precipitaciones diarias en mm
DESCASC
Precipitaciones de 00:00 a 06:00 en mm
DESCASC
Precipitaciones de 06:00 a 12:00 en mm
DESCASC
Precipitaciones de 12:00 a 18:00 en mm
DESCASC
Precipitaciones de 18:00 a 24:00 en mm
DESCASC
13-10-2019 21.4 (10:20) 15.1 (23:59) 18.3 17.5 (11:00) 11.11 (10:10) 18.6 0 0 7 11.6
12-10-2019 20.7 (14:40) 14.8 (09:20) 17.8 9.72 (17:10) 5.56 (17:40) 0 0 0 0 0
11-10-2019 21 (13:40) 11.5 (07:50) 16.3 6.11 (07:50) 5 (08:40) 0 0 0 0 0
10-10-2019 20.3 (14:10) 11 (00:00) 15.6 -- (--) 5.83 (08:50) 0 0 0 0 0
09-10-2019 20.8 (16:50) 14 (00:00) 17.4 12.22 (14:10) 8.33 (07:30) 0 0 0 0 0
08-10-2019 23.3 (10:40) 15.4 (00:00) 19.3 -- (--) -- (--) -- 0 -- -- 0
07-10-2019 21.7 (19:00) 12.7 (00:00) 17.2 6.39 (08:40) 4.72 (08:30) 0 0 0 0 0
06-10-2019 21.1 (14:10) 14.5 (00:00) 17.8 8.61 (04:40) 6.11 (04:40) 0 0 0 0 0
05-10-2019 19.6 (13:30) 14.4 (00:00) 17 7.78 (16:00) 5.28 (14:40) 0 0 0 0 0
04-10-2019 21.4 (17:20) 16.2 (00:00) 18.8 10 (01:10) 6.67 (01:20) 2.6 2.4 0.2 0 0
03-10-2019 23.6 (16:30) 12.4 (00:00) 18 7.78 (21:50) 6.67 (21:50) 0.4 0 0 0 0.4
02-10-2019 21.4 (15:30) 14.9 (00:00) 18.1 17.5 (02:50) 11.67 (00:40) 0.8 0 0.8 0 0
01-10-2019 23.1 (13:10) 17.4 (00:00) 20.3 18.89 (12:30) 13.89 (11:30) 0 0 0 0 0
30-09-2019 24.5 (15:40) 16.5 (00:00) 20.5 5.56 (08:30) 4.44 (08:30) 0 0 0 0 0
29-09-2019 24.9 (16:30) 12.6 (00:00) 18.8 17.78 (11:40) 13.33 (11:20) 0 0 0 0 0
28-09-2019 20.1 (15:50) 12.2 (00:00) 16.2 -- (--) -- (--) 0 0 0 0 0
27-09-2019 20.5 (00:40) 16.5 (00:00) 18.5 -- (--) -- (--) 0.6 0 0 0.6 0
26-09-2019 22.4 (16:20) 13.9 (00:00) 18.1 10 (23:59) 6.67 (02:50) 0 0 0 0 0
25-09-2019 22.1 (19:10) 16.5 (00:00) 19.3 14.17 (11:50) 11.67 (12:10) 0 0 0 0 0
24-09-2019 23.9 (02:40) 16.7 (00:00) 20.3 21.11 (06:30) 15.83 (06:30) 0.6 0.2 0.4 0 0
23-09-2019 21.5 (23:50) 13.9 (00:00) 17.7 11.94 (15:20) 5 (07:10) 0 0 0 0 0
22-09-2019 22.7 (15:10) 14.7 (00:00) 18.7 20 (12:50) 14.17 (12:30) 2.2 0 0 1.2 1
21-09-2019 22 (13:20) 15.8 (00:00) 18.9 17.22 (20:30) 11.39 (20:30) 5.6 0 0.4 0.4 4.8
20-09-2019 19.1 (14:40) 14.9 (00:00) 17 -- (--) -- (--) 7 0 0 0 7
19-09-2019 20.1 (13:30) 16.8 (00:00) 18.4 -- (--) -- (--) 0 0 0 0 0
18-09-2019 20.5 (14:50) 16 (00:00) 18.3 13.89 (14:30) 8.06 (19:40) 0 0 0 0 0
17-09-2019 21.5 (17:30) 17.4 (00:00) 19.4 8.61 (21:40) 5 (21:40) 7 0 0 0 7
16-09-2019 22.8 (13:10) 17.2 (00:00) 20 5.83 (23:30) 3.89 (23:10) 0 0 0 0 0
15-09-2019 22.1 (17:30) 16.3 (00:00) 19.2 6.11 (07:20) 4.17 (07:20) 0 0 0 0 0

Gráficas

Temp. máximas Temp. mínimas Temp. medias Precipitaciones Rachas de viento máximas Velocidades máximas media en intervalos de 10 minutos

Datos horarios

Fecha y hora oficial Temperatura (ºC) Velocidad del viento (km/h) Dirección del viento Racha (km/h) Dirección de racha Precipitación (mm) Presión (hPa) Tendencia (hPa) Humedad (%)
2019-10-14 23:00:00 13.4 40 Oeste 54 Oeste 0 1006.4 2 61
2019-10-14 22:00:00 13.1 37 Oeste 57 Oeste 0 1005.7 1.9 62
2019-10-14 21:00:00 13.3 48 Oeste 66 Oeste 0 1005 2.4 63
2019-10-14 20:00:00 13.5 35 Oeste 50 Oeste 0 1004.4 2.7 64
2019-10-14 19:00:00 14.2 33 Oeste 51 Oeste 0 1003.8 2.2 68
2019-10-14 18:00:00 13.5 44 Oeste 73 Oeste 0 1002.6 2.2 71
2019-10-14 17:00:00 16 36 Oeste 53 Oeste 0 1001.7 1.7 58
2019-10-14 16:00:00 14.4 37 Oeste 53 Oeste 0 1001.6 1.7 71
2019-10-14 15:00:00 15.8 33 Oeste 62 Oeste 0 1000.4 1.4 62
2019-10-14 14:00:00 16.6 18 Oeste 32 Oeste 0 1000 0.9 59
2019-10-14 13:00:00 15.8 33 Oeste 51 Oeste 0 999.9 1.9 62
2019-10-14 12:00:00 15.5 29 Oeste 54 Oeste 0.2 999 1.5 64
2019-10-14 11:00:00 14.9 11 Oeste 16 Oeste 0 999.1 1.8 68
2019-10-14 10:00:00 15.2 9 Oeste 19 Sudoeste 0 998 -0.2 59
2019-10-14 09:00:00 14.5 6 Sur -- -- 0 997.5 -1.5 64
2019-10-14 08:00:00 14.6 19 Sur 53 Sudoeste 0 997.3 -2.2 63
2019-10-14 07:00:00 14.8 28 Sudoeste 54 Sudoeste 0 998.2 -2.2 66
2019-10-14 06:00:00 13.9 21 Sudoeste 30 Sudoeste 1 999 -1.9 76
2019-10-14 05:00:00 13.1 10 Sur 26 Sudoeste 2.2 999.5 -1.6 84
2019-10-14 04:00:00 13.1 8 Sudoeste 28 Oeste 3.2 1000.4 -0.9 87
2019-10-14 03:00:00 13.6 17 Oeste 45 Oeste 1 1000.9 -0.7 88
2019-10-14 02:00:00 14.3 18 Oeste 40 Oeste 0.4 1001.1 -0.3 90
2019-10-14 01:00:00 14.5 25 Oeste -- -- 0.8 1001.3 -0.2 91
2019-10-14 00:00:00 15.1 27 Oeste -- -- 3.2 1001.6 -0.7 90
2019-10-13 23:00:00 15.4 8 Este 30 Este 0.2 1001.4 -0.8 90
2019-10-13 22:00:00 15.5 16 Este 26 Este 2.2 1001.5 -1.9 90
2019-10-13 21:00:00 15.3 6 Este 23 Este 1.2 1002.3 -0.7 90
2019-10-13 20:00:00 15.2 13 Este 23 Nordeste 2.6 1002.2 -1.2 90
2019-10-13 19:00:00 15.5 -- -- -- -- 2.2 1003.4 0.1 88
2019-10-13 18:00:00 15.4 5 Nordeste 10 Oeste 3.4 1003 -0.6 87
2019-10-13 17:00:00 15.3 9 Noroeste 20 Noroeste 1.6 1003.4 -0.4 87
2019-10-13 16:00:00 16.3 0 Calma 12 Noroeste 1.2 1003.3 -0.1 86
2019-10-13 15:00:00 16.4 9 Noroeste 28 Oeste 0 1003.6 0.4 87
2019-10-13 14:00:00 16.7 17 Oeste 35 Oeste 0.2 1003.8 2.4 83
2019-10-13 13:00:00 16.8 22 Oeste 41 Oeste 0.6 1003.4 3.6 83
2019-10-13 12:00:00 17 21 Oeste 55 Oeste 0 1003.2 4.6 81
2019-10-13 11:00:00 17.9 38 Oeste 63 Oeste 0 1001.4 3.4 76
2019-10-13 10:00:00 20.8 27 Oeste 39 Sudoeste 0 999.8 1.4 60
2019-10-13 09:00:00 18.8 6 Sudoeste 26 Sur 0 998.6 1.1 66
2019-10-13 08:00:00 18.3 13 Sudeste 20 Sur 0 998 0.2 64
2019-10-13 07:00:00 17.1 12 Sudeste 30 Sudeste 0 998.4 0 74
2019-10-13 06:00:00 16.2 16 Sudeste 26 Sudeste 0 997.5 -1.4 81
2019-10-13 05:00:00 15.7 11 Sudeste 21 Sudeste 0 997.8 -1.7 83
2019-10-13 04:00:00 15.8 14 Sudeste 22 Sudeste 0 998.4 -1.5 85
2019-10-13 03:00:00 15.6 17 Sur 23 Sudeste 0 998.9 -1.5 85
2019-10-13 02:00:00 15.8 15 Sudeste 21 Sudeste 0 999.5 -1.2 85
2019-10-13 01:00:00 16.2 18 Sudeste 24 Sudeste 0 999.9 -0.8 85
2019-10-13 00:00:00 16.2 13 Sur 18 Sudeste 0 1000.4 -0.8 85
2019-10-12 23:00:00 17.3 4 Este 14 Sudeste 0 1000.7 0 82
2019-10-12 22:00:00 17.1 9 Sudeste 15 Sudeste 0 1000.7 0.2 82
2019-10-12 21:00:00 18.4 7 Este 27 Nordeste 0 1001.2 0.6 76
2019-10-12 20:00:00 19 16 Nordeste 35 Nordeste 0 1000.7 -0.5 79
2019-10-12 19:00:00 19.4 16 Nordeste 35 Nordeste 0 1000.5 -0.9 78
2019-10-12 18:00:00 19.4 19 Nordeste 35 Nordeste 0 1000.6 -1.5 78
2019-10-12 17:00:00 20 17 Nordeste 31 Nordeste 0 1001.2 -1.7 72
2019-10-12 16:00:00 20.3 15 Nordeste 26 Nordeste 0 1001.4 -2.1 72
2019-10-12 15:00:00 20.4 9 Nordeste 23 Nordeste 0 1002.1 -1.9 70
2019-10-12 14:00:00 20.4 10 Nordeste 21 Nordeste 0 1002.9 -1.6 68
2019-10-12 13:00:00 19.5 9 Nordeste 18 Nordeste 0 1003.5 -0.6 74
2019-10-12 12:00:00 19.6 7 Este 18 Sudeste 0 1004 0.2 71
2019-10-12 11:00:00 17.6 13 Sudeste 21 Sudeste 0 1004.5 0.9 79
2019-10-12 10:00:00 15.5 14 Sudeste 21 Sudeste 0 1004.1 0.2 86
2019-10-12 09:00:00 14.9 12 Sudeste 19 Sudeste 0 1003.8 -0.2 87
2019-10-12 08:00:00 15 14 Sudeste 20 Sudeste 0 1003.6 -0.7 87
2019-10-12 07:00:00 15.1 13 Sudeste 21 Sudeste 0 1003.9 -0.9 86
2019-10-12 06:00:00 15.8 9 Sudeste 14 Sur 0 1004 -1.2 85
2019-10-12 05:00:00 16.2 8 Sudeste 12 Este 0 1004.3 -1.6 84
2019-10-12 04:00:00 16.4 8 Sur 12 Noroeste 0 1004.8 -1.7 83
2019-10-12 03:00:00 16.6 7 Sudoeste 11 Noroeste 0 1005.2 -1.7 83
2019-10-12 02:00:00 16.8 6 Sudeste 12 Sur 0 1005.9 -1.3 82
2019-10-12 01:00:00 17 5 Sudeste 13 Este 0 1006.5 -0.7 82
2019-10-12 00:00:00 16.9 6 Sudeste 14 Este 0 1006.9 -0.5 82
2019-10-11 23:00:00 17.1 5 Sudeste 11 Nordeste 0 1007.2 -0.2 81
2019-10-11 22:00:00 17.2 5 Sudeste 10 Nordeste 0 1007.2 -0.2 80
2019-10-11 21:00:00 17.6 0 Calma 13 Noroeste 0 1007.4 0.3 78
2019-10-11 20:00:00 17.7 8 Noroeste 19 Oeste 0 1007.4 0.3 79
2019-10-11 19:00:00 18 10 Noroeste 16 Oeste 0 1007.4 0.1 76
2019-10-11 18:00:00 19.9 7 Noroeste 12 Oeste 0 1007.1 -0.8 72
2019-10-11 17:00:00 20.4 6 Oeste 12 Oeste 0 1007.1 -1.8 69
2019-10-11 16:00:00 20.8 8 Oeste 15 Oeste 0 1007.3 -2.1 68
2019-10-11 15:00:00 20.6 10 Oeste 19 Oeste 0 1007.9 -1.7 70
2019-10-11 14:00:00 19.3 12 Oeste 21 Oeste 0 1008.9 -0.8 73
2019-10-11 13:00:00 20.1 9 Oeste 14 Oeste 0 1009.4 0 71
2019-10-11 12:00:00 18 9 Oeste 14 Oeste 0 1009.6 0.6 68
2019-10-11 11:00:00 18 4 Oeste 14 Oeste 0 1009.7 0.8 68
2019-10-11 10:00:00 14 12 Sur 22 Sur 0 1009.4 0.8 78
2019-10-11 09:00:00 11.9 15 Sudeste 22 Sur 0 1009 0.1 82
2019-10-11 08:00:00 11.6 17 Sudeste 22 Sudeste 0 1008.9 -0.3 83
2019-10-11 07:00:00 12 16 Sudeste 21 Sudeste 0 1008.6 -0.9 83
2019-10-11 06:00:00 12.1 15 Sudeste 20 Sudeste 0 1008.9 -1.3 84
2019-10-11 05:00:00 12.2 9 Sudeste 20 Sudeste 0 1009.2 -1.3 84
2019-10-11 04:00:00 12.3 14 Sudeste 18 Sudeste 0 1009.5 -1.8 85
2019-10-11 03:00:00 12.4 13 Sudeste 15 Sudeste 0 1010.2 -1.5 85
2019-10-11 02:00:00 12.7 9 Sur 17 Sudeste 0 1010.5 -1.3 84
2019-10-11 01:00:00 13.3 11 Sur 15 Sur 0 1011.3 -0.4 81
2019-10-11 00:00:00 14.8 10 Sudoeste 15 Oeste 0 1011.7 -0.1 80
2019-10-10 23:00:00 13.7 10 Sur 14 Sudeste 0 1011.8 0 80
2019-10-10 22:00:00 15.6 8 Sudeste 17 Este 0 1011.7 -0.3 75
2019-10-10 21:00:00 17 13 Este 28 Nordeste 0 1011.8 -0.7 74
2019-10-10 20:00:00 17.6 16 Nordeste 31 Nordeste 0 1011.8 -1.2 71
2019-10-10 19:00:00 18.2 16 Nordeste 31 Nordeste 0 1012 -1.8 68
2019-10-10 18:00:00 19 11 Nordeste 30 Nordeste 0 1012.5 -1.8 66
2019-10-10 17:00:00 19.3 10 Nordeste 22 Nordeste 0 1013 -1.9 66
2019-10-10 16:00:00 20.2 5 Norte 18 Nordeste 0 1013.8 -1.5 62
2019-10-10 15:00:00 19.4 10 Nordeste -- -- 0 1014.3 -1.3 64
2019-10-10 14:00:00 20 5 Sudoeste 12 Nordeste 0 1014.9 -1 62
2019-10-10 13:00:00 19.4 4 Oeste -- -- 0 1015.3 -0.4 59
2019-10-10 12:00:00 19 3 Sudoeste 19 Sudeste 0 1015.6 0.3 63
2019-10-10 11:00:00 15.4 15 Sudeste 26 Sudeste 0 1015.9 0.8 69
2019-10-10 10:00:00 12.8 19 Sudeste 25 Sudeste 0 1015.7 0.6 76
2019-10-10 09:00:00 11.1 21 Sudeste 26 Sudeste 0 1015.3 0.2 81
2019-10-10 08:00:00 11.2 20 Sudeste 25 Sudeste 0 1015.1 -0.2 81
2019-10-10 07:00:00 11.3 19 Sur 24 Sudeste 0 1015.1 -0.5 83
2019-10-10 06:00:00 11.4 17 Sur 23 Sur 0 1015.1 -0.5 83
2019-10-10 05:00:00 11.9 18 Sur 22 Sur 0 1015.3 -0.5 82
2019-10-10 04:00:00 12 14 Sur 19 Sur 0 1015.6 -0.6 83
2019-10-10 03:00:00 12.1 16 Sur 20 Sur 0 1015.6 -0.8 83
2019-10-10 02:00:00 12.5 15 Sur 19 Sur 0 1015.8 -0.3 82
2019-10-10 01:00:00 13.4 14 Sur 19 Sur 0 1016.2 0.3 80
2019-10-10 00:00:00 14 13 Sur 17 Sur 0 1016.4 0.5 79
2019-10-09 23:00:00 14.6 11 Sur 15 Sudoeste 0 1016.1 0.5 78
2019-10-09 22:00:00 14.9 12 Sur 17 Sur 0 1015.9 0.4 76
2019-10-09 21:00:00 16.4 12 Oeste 22 Noroeste 0 1015.9 0.7 72
2019-10-09 20:00:00 16.9 9 Noroeste 24 Oeste 0 1015.6 0.2 71
2019-10-09 19:00:00 18.3 16 Oeste 26 Oeste 0 1015.5 0 67
2019-10-09 18:00:00 19.6 17 Oeste 28 Oeste 0 1015.2 0.1 63
2019-10-09 17:00:00 19.5 19 Oeste 34 Oeste 0 1015.4 0.2 65
2019-10-09 16:00:00 20.4 21 Oeste 38 Oeste 0 1015.5 0 55
2019-10-09 15:00:00 20.5 22 Oeste 44 Oeste 0 1015.1 -0.5 54
2019-10-09 14:00:00 20.2 27 Oeste 40 Oeste 0 1015.2 -0.4 57
2019-10-09 13:00:00 19.8 17 Oeste 31 Oeste 0 1015.5 0.2 53
2019-10-09 12:00:00 18 18 Oeste 29 Sudoeste 0 1015.6 1 57
2019-10-09 11:00:00 16.6 17 Oeste 32 Oeste 0 1015.6 1.5 63
2019-10-09 10:00:00 15.6 17 Oeste 40 Oeste 0 1015.3 1.4 66
2019-10-09 09:00:00 15 12 Sudoeste 26 Sudoeste 0 1014.6 0.8 68
2019-10-09 08:00:00 15 22 Oeste -- -- 0 1014.1 0.7 74
2019-10-09 07:00:00 15.3 20 Oeste 36 Oeste 0 1013.9 0.3 68
2019-10-09 06:00:00 15.3 19 Oeste 33 Oeste 0 1013.8 -0.2 69
2019-10-09 05:00:00 15.5 27 Oeste 34 Oeste 0 1013.4 0 69
2019-10-09 04:00:00 15.3 14 Sudoeste 25 Oeste 0 1013.6 0.2 70
2019-10-09 03:00:00 15.8 17 Oeste 32 Oeste 0 1014 0.1 73
2019-10-09 02:00:00 16.1 25 Oeste 37 Oeste 0 1013.4 -0.7 74
2019-10-09 01:00:00 15.9 16 Oeste 31 Oeste 0 1013.4 -0.5 77
2019-10-09 00:00:00 15.7 9 Sudoeste 20 Sur 0 1013.9 0.1 80
2019-10-08 23:00:00 16 10 Sudoeste 21 Sudoeste 0 1014.1 0.6 80
2019-10-08 22:00:00 15.7 11 Sudoeste 26 Oeste 0 1013.9 0.8 81
2019-10-08 21:00:00 15.7 26 Oeste 33 Oeste 0 1013.8 1 82
2019-10-08 20:00:00 16.1 10 Sudoeste -- -- 0 1013.5 0.4 82
2019-10-08 19:00:00 15.5 -- -- -- -- 0 1013.1 0 86
2019-10-08 18:00:00 15.5 -- -- -- -- 0.2 1012.8 -0.3 87
2019-10-08 17:00:00 16 -- -- -- -- 0.8 1013.1 0.9 88
2019-10-08 16:00:00 15.5 -- -- -- -- 0.4 1013.1 0.9 89
2019-10-08 15:00:00 15.8 -- -- -- -- 0 1013.1 2.3 90
2019-10-08 14:00:00 16.2 -- -- -- -- 0.4 1012.2 2.4 92
2019-10-08 13:00:00 17 -- -- -- -- -- 1012.2 2.9 91
2019-10-08 12:00:00 19.5 -- -- -- -- -- 1010.8 1.5 83
2019-10-08 11:00:00 22.2 -- -- -- -- 0 1009.8 0.1 67
2019-10-08 10:00:00 22.5 11 Sudoeste 31 Sudoeste 0 1009.3 -0.7 64
2019-10-08 09:00:00 22.3 19 Sur 37 Sur 0 1009.3 -0.6 63
2019-10-08 08:00:00 20.7 17 Sudoeste 26 Sudoeste 0 1009.7 -0.6 69
2019-10-08 07:00:00 17.1 13 Sur 21 Sur 0 1010 -0.7 76
2019-10-08 06:00:00 16.8 15 Sur 20 Sur 0 1009.9 -1.1 77
2019-10-08 05:00:00 17 13 Sur 18 Sur 0 1010.3 -1.2 78
2019-10-08 04:00:00 17.4 12 Sur 20 Sudeste 0 1010.7 -1.3 77
2019-10-08 03:00:00 17.3 17 Sudeste 26 Sudeste 0 1011 -1.4 77
2019-10-08 02:00:00 17.1 17 Sudeste 22 Sudeste 0 1011.5 -0.7 79
2019-10-08 01:00:00 17 14 Sudeste 17 Sudeste 0 1012 0 80
2019-10-08 00:00:00 17.4 14 Sudeste 19 Sudeste 0 1012.4 0.7 79
2019-10-07 23:00:00 17.8 15 Sur 19 Sur 0 1012.2 0.3 78
2019-10-07 22:00:00 18.6 14 Sur 17 Sur 0 1012 -0.4 75
2019-10-07 21:00:00 19.2 12 Sudeste 14 Sudeste 0 1011.7 -1 71
2019-10-07 20:00:00 19.2 11 Sudeste 15 Sudeste 0 1011.9 -1.1 62
2019-10-07 19:00:00 21.5 3 Este 9 Sudeste 0 1012.4 -0.9 59
2019-10-07 18:00:00 21.2 6 Este 12 Este 0 1012.7 -0.9 62
2019-10-07 17:00:00 20.7 6 Este 9 Este 0 1013 -0.8 66
2019-10-07 16:00:00 20 4 Nordeste 8 Este 0 1013.3 -0.4 68
2019-10-07 15:00:00 20.2 4 Noroeste 10 Norte 0 1013.6 0.1 70
2019-10-07 14:00:00 19.9 6 Nordeste 14 Nordeste 0 1013.8 0.1 66
2019-10-07 13:00:00 19.6 9 Nordeste 17 Nordeste 0 1013.7 0 68
2019-10-07 12:00:00 19.6 5 Este 15 Sur 0 1013.5 -0.2 62
2019-10-07 11:00:00 17.4 12 Sudeste 20 Sudeste 0 1013.7 0.1 67
2019-10-07 10:00:00 14.3 15 Sudeste 21 Sudeste 0 1013.7 0.7 78
2019-10-07 09:00:00 12.8 15 Sur 23 Sur 0 1013.7 0.9 84
2019-10-07 08:00:00 13.1 13 Sur 20 Sur 0 1013.6 0.6 86
2019-10-07 07:00:00 13.1 14 Sudeste 20 Sudeste 0 1013 -0.4 87
2019-10-07 06:00:00 13.4 14 Sudeste 20 Sudeste 0 1012.8 -1 88
2019-10-07 05:00:00 13.6 17 Sudeste 20 Sudeste 0 1013 -1.1 88
2019-10-07 04:00:00 13.8 14 Sur 18 Sur 0 1013.4 -1.6 87
2019-10-07 03:00:00 14.3 12 Sur 15 Sur 0 1013.8 -1.2 86
2019-10-07 02:00:00 14.8 11 Sur 13 Sur 0 1014.1 -1.4 84
2019-10-07 01:00:00 15.8 9 Oeste 14 Sudeste 0 1015 -0.9 84
2019-10-07 00:00:00 15.9 9 Sudeste 13 Este 0 1015 -0.9 82
2019-10-06 23:00:00 15.7 7 Sudeste 13 Este 0 1015.5 -0.2 81
2019-10-06 22:00:00 16.2 6 Sudeste 11 Este 0 1015.9 0.7 77
2019-10-06 21:00:00 17.5 6 Este 13 Nordeste 0 1015.9 0.8 74
2019-10-06 20:00:00 17.7 5 Nordeste 14 Nordeste 0 1015.7 0.5 73
2019-10-06 19:00:00 18.1 5 Nordeste 14 Nordeste 0 1015.2 -0.1 72
2019-10-06 18:00:00 18.9 5 Nordeste 16 Nordeste 0 1015.1 -0.5 71
2019-10-06 17:00:00 19.1 4 Oeste 14 Noroeste 0 1015.2 -0.7 71
2019-10-06 16:00:00 19.8 6 Noroeste 18 Noroeste 0 1015.3 -0.6 69
2019-10-06 15:00:00 20 12 Noroeste 23 Noroeste 0 1015.6 0.1 73
2019-10-06 14:00:00 20.7 10 Oeste 27 Oeste 0 1015.9 0.8 77
2019-10-06 13:00:00 18.7 14 Oeste 28 Noroeste 0 1015.9 1 81
2019-10-06 12:00:00 18.3 10 Oeste 17 Oeste 0 1015.5 1.3 83
2019-10-06 11:00:00 17.1 11 Oeste 19 Sur 0 1015.1 1.7 87
2019-10-06 10:00:00 16.4 11 Sudoeste 27 Oeste 0 1014.9 1.7 88
2019-10-06 09:00:00 16.9 11 Oeste 27 Oeste 0 1014.2 1.1 85
2019-10-06 08:00:00 16.4 11 Sudoeste 17 Sur 0 1013.4 0.5 87
2019-10-06 07:00:00 15.5 12 Sur 15 Sur 0 1013.2 0.3 86
2019-10-06 06:00:00 16.3 6 Sudoeste 20 Oeste 0 1013.1 0.2 84
2019-10-06 05:00:00 16.7 10 Noroeste -- -- 0 1012.9 0.1 80
2019-10-06 04:00:00 15.8 9 Sudeste 15 Sur 0 1012.9 -0.3 78
2019-10-06 03:00:00 16.3 9 Sudoeste 21 Sur 0 1012.9 0 76
2019-10-06 02:00:00 15.2 16 Sur 21 Sur 0 1012.8 0.1 79
2019-10-06 01:00:00 14.7 14 Sur 21 Sudeste 0 1013.2 0.3 81
2019-10-06 00:00:00 14.7 15 Sur 21 Sudeste 0 1012.9 0.2 80
2019-10-05 23:00:00 15.1 14 Sur 20 Sur 0 1012.7 0.7 78
2019-10-05 22:00:00 15.5 15 Sur 21 Sur 0 1012.9 0.8 77
2019-10-05 21:00:00 16.4 9 Oeste 13 Noroeste 0 1012.7 1 75
2019-10-05 20:00:00 16.7 4 Sudeste 13 Oeste 0 1012 0.5 71
2019-10-05 19:00:00 18.1 6 Oeste 15 Oeste 0 1012.1 0.9 67
2019-10-05 18:00:00 18.8 10 Oeste 26 Noroeste 0 1011.7 0.5 66
2019-10-05 17:00:00 18.3 17 Oeste 27 Noroeste 0 1011.5 -0.1 67
2019-10-05 16:00:00 18.9 14 Noroeste 28 Noroeste 0 1011.2 -0.6 70
2019-10-05 15:00:00 18.2 18 Noroeste 27 Oeste 0 1011.2 -0.9 72
2019-10-05 14:00:00 18.6 10 Oeste 17 Oeste 0 1011.6 -0.2 72
2019-10-05 13:00:00 19.3 8 Oeste 22 Noroeste 0 1011.8 0.7 73
2019-10-05 12:00:00 18.6 8 Oeste 17 Oeste 0 1012.1 1.7 72
2019-10-05 11:00:00 17.5 8 Oeste 13 Oeste 0 1011.8 1.8 75
2019-10-05 10:00:00 15.9 10 Sudoeste 15 Oeste 0 1011.1 1.4 79
2019-10-05 09:00:00 14.8 9 Sudoeste 14 Sur 0 1010.4 0.6 85
2019-10-05 08:00:00 15.2 11 Oeste 12 Oeste 0 1010 -0.4 85
2019-10-05 07:00:00 15.3 8 Sur 10 Sur 0 1009.7 -1.3 84
2019-10-05 06:00:00 15.8 9 Sur 13 Sudeste 0 1009.8 -1.5 83
2019-10-05 05:00:00 16.2 9 Sur 12 Sudeste 0 1010.4 -1 82
2019-10-05 04:00:00 16.3 6 Sur 11 Noroeste 0 1011 -0.7 82
2019-10-05 03:00:00 16.3 8 Sur 11 Este 0 1011.3 -0.2 82
2019-10-05 02:00:00 16.4 8 Sudeste 11 Este 0 1011.4 -0.4 83
2019-10-05 01:00:00 16.5 7 Sudeste 10 Este 0 1011.7 0 82
2019-10-05 00:00:00 16.6 7 Sudeste 10 Este 0 1011.5 -0.3 82
2019-10-04 23:00:00 16.8 6 Sur 8 Sur 0 1011.8 0.3 80
2019-10-04 22:00:00 17.1 4 Sur 11 Noroeste 0 1011.7 0.2 79
2019-10-04 21:00:00 17.7 4 Oeste 12 Noroeste 0 1011.8 0.6 77
2019-10-04 20:00:00 18 6 Oeste 10 Oeste 0 1011.5 0.2 75
2019-10-04 19:00:00 18.4 5 Oeste 14 Oeste 0 1011.5 -0.5 73
2019-10-04 18:00:00 19.6 5 Oeste 12 Oeste 0 1011.2 -1 71
2019-10-04 17:00:00 21.2 8 Oeste 14 Oeste 0 1011.3 -1.1 66
2019-10-04 16:00:00 19.9 6 Oeste 16 Oeste 0 1012 -0.4 70
2019-10-04 15:00:00 20.1 9 Oeste 19 Oeste 0 1012.2 -0.3 68
2019-10-04 14:00:00 19.5 9 Oeste 21 Oeste 0 1012.4 -0.2 70
2019-10-04 13:00:00 19.2 13 Oeste 27 Oeste 0 1012.4 0.1 70
2019-10-04 12:00:00 17.7 19 Oeste 30 Oeste 0 1012.5 0.5 75
2019-10-04 11:00:00 16.8 24 Oeste 32 Oeste 0 1012.6 1.1 80
2019-10-04 10:00:00 16.3 21 Oeste 35 Oeste 0 1012.3 1 85
2019-10-04 09:00:00 16.8 15 Oeste 36 Oeste 0 1012 0.6 85
2019-10-04 08:00:00 16.9 23 Oeste 31 Oeste 0 1011.5 0.2 84
2019-10-04 07:00:00 16.6 16 Oeste 29 Oeste 0.2 1011.3 0 88
2019-10-04 06:00:00 16.6 9 Oeste 26 Oeste 0.2 1011.4 -0.2 89
2019-10-04 05:00:00 16.7 17 Oeste 33 Oeste 0.4 1011.3 -0.2 90
2019-10-04 04:00:00 17 20 Oeste 28 Oeste 0.6 1011.3 -0.3 90
2019-10-04 03:00:00 17.4 18 Oeste 29 Oeste 0.6 1011.6 0 89
2019-10-04 02:00:00 17.8 -- -- -- -- 0.6 1011.5 -0.3 87
2019-10-04 01:00:00 19 10 Oeste 17 Oeste 0 1011.6 -0.1 88
2019-10-04 00:00:00 19 9 Sudoeste 14 Oeste 0 1011.6 0.6 87
2019-10-03 23:00:00 19.1 5 Oeste 16 Oeste 0.4 1011.8 1 86
2019-10-03 22:00:00 19.2 21 Noroeste 28 Oeste 0 1011.7 1.4 82
2019-10-03 21:00:00 20.1 9 Sudeste 12 Sudeste 0 1011 0.4 71
2019-10-03 20:00:00 20.5 9 Este 12 Este 0 1010.8 0.3 66
2019-10-03 19:00:00 21.2 5 Este 11 Sudeste 0 1010.3 -0.7 62
2019-10-03 18:00:00 22.4 3 Noroeste 9 Noroeste 0 1010.6 -0.4 60
2019-10-03 17:00:00 22.8 5 Noroeste 9 Oeste 0 1010.5 -1.2 57
2019-10-03 16:00:00 22.2 6 Noroeste 17 Norte 0 1011 -1.1 58
2019-10-03 15:00:00 20.7 4 Nordeste 13 Sudeste 0 1011 -0.9 66
2019-10-03 14:00:00 19.8 10 Este 15 Este 0 1011.7 -0.5 68
2019-10-03 13:00:00 19.1 6 Nordeste 12 Este 0 1012.1 0.5 71
2019-10-03 12:00:00 18.6 9 Este 11 Este 0 1011.9 0.2 67
2019-10-03 11:00:00 18.1 3 Nordeste 17 Sur 0 1012.2 0.6 69
2019-10-03 10:00:00 14.7 12 Sur 18 Sur 0 1011.6 -0.3 81
2019-10-03 09:00:00 12.4 13 Sur 23 Sudeste 0 1011.7 -0.2 85
2019-10-03 08:00:00 12.6 17 Sudeste 22 Sudeste 0 1011.6 -0.4 87
2019-10-03 07:00:00 12.4 13 Sudeste 19 Sudeste 0 1011.9 -0.1 87
2019-10-03 06:00:00 13 9 Sur 14 Sur 0 1011.9 -0.5 86
2019-10-03 05:00:00 13.2 9 Sudoeste 18 Sudeste 0 1012 -0.7 86
2019-10-03 04:00:00 13.9 15 Sudeste 19 Sudeste 0 1012 -1.3 86
2019-10-03 03:00:00 14.4 11 Sudeste 17 Sudeste 0 1012.4 -1.5 85
2019-10-03 02:00:00 14.8 10 Sudeste 14 Sudeste 0 1012.7 -1.8 84
2019-10-03 01:00:00 14.9 9 Sudeste 12 Sudeste 0 1013.3 -1.3 83
2019-10-03 00:00:00 15.5 7 Sudeste 13 Este 0 1013.9 -0.9 83
2019-10-02 23:00:00 15.5 9 Sudeste 14 Sudeste 0 1014.5 -0.2 82
2019-10-02 22:00:00 15.6 12 Sudeste 15 Sudeste 0 1014.6 0.3 83
2019-10-02 21:00:00 15.9 8 Sur 11 Noroeste 0 1014.8 0.5 81
2019-10-02 20:00:00 17.5 4 Noroeste 13 Noroeste 0 1014.7 0.4 73
2019-10-02 19:00:00 19.4 8 Oeste 16 Noroeste 0 1014.3 0.2 73
2019-10-02 18:00:00 19.1 10 Oeste 26 Noroeste 0 1014.3 0.3 76
2019-10-02 17:00:00 19.4 16 Oeste 32 Oeste 0 1014.3 0 71
2019-10-02 16:00:00 20 17 Oeste 32 Oeste 0 1014.1 -0.4 66
2019-10-02 15:00:00 20.9 19 Oeste 32 Noroeste 0 1014 -0.1 65
2019-10-02 14:00:00 20.1 15 Oeste 30 Oeste 0 1014.3 0.8 67
2019-10-02 13:00:00 18.8 24 Oeste 43 Oeste 0 1014.5 1.8 70
2019-10-02 12:00:00 17.1 19 Noroeste 37 Oeste 0 1014.1 2 75
2019-10-02 11:00:00 17.5 21 Oeste 40 Oeste 0 1013.5 2 72
2019-10-02 10:00:00 16.7 25 Oeste 35 Oeste 0 1012.7 1.5 69
2019-10-02 09:00:00 15.8 17 Sudoeste 37 Oeste 0 1012.1 1.1 76
2019-10-02 08:00:00 15.4 22 Oeste 39 Oeste 0.2 1011.5 1 80
2019-10-02 07:00:00 15.4 26 Oeste 51 Oeste 0.6 1011.2 0.6 85
2019-10-02 06:00:00 16.4 24 Oeste 59 Oeste 0 1011 0.4 74
2019-10-02 05:00:00 17.7 31 Oeste 54 Oeste 0 1010.5 0 64
2019-10-02 04:00:00 17.9 32 Oeste 49 Sudoeste 0 1010.6 0.2 63
2019-10-02 03:00:00 17.3 35 Oeste 63 Oeste 0 1010.6 0.5 66
2019-10-02 02:00:00 18.3 37 Oeste 57 Oeste 0 1010.5 0.2 57
2019-10-02 01:00:00 18.2 39 Oeste 54 Oeste 0 1010.4 1.2 59
2019-10-02 00:00:00 17.6 39 Oeste 51 Oeste 0 1010.1 1.8 67
2019-10-01 23:00:00 18 30 Oeste 59 Oeste 0 1010.3 1.9 72
2019-10-01 22:00:00 18.1 35 Oeste 60 Oeste 0 1009.2 1.3 71
2019-10-01 21:00:00 18 37 Oeste 53 Oeste 0 1008.3 1.4 76
2019-10-01 20:00:00 18.5 32 Oeste 50 Oeste 0 1008.4 1.8 76
2019-10-01 19:00:00 19.4 33 Oeste 66 Oeste 0 1007.9 1.5 73
2019-10-01 18:00:00 20 38 Oeste 63 Oeste 0 1006.9 0.8 70
2019-10-01 17:00:00 21.1 35 Oeste 51 Oeste 0 1006.6 0.5 67
2019-10-01 16:00:00 21.2 35 Oeste 66 Oeste 0 1006.4 -0.1 68
2019-10-01 15:00:00 21.9 38 Oeste 55 Oeste 0 1006.1 -0.1 65
2019-10-01 14:00:00 22.3 38 Oeste 60 Oeste 0 1006.1 -0.1 58
2019-10-01 13:00:00 23 30 Oeste 68 Oeste 0 1006.5 0.5 55
2019-10-01 12:00:00 22 48 Oeste 66 Oeste 0 1006.2 0.9 51
2019-10-01 11:00:00 20.9 34 Oeste 49 Oeste 0 1006.2 1.3 61
2019-10-01 10:00:00 19.9 25 Oeste 40 Sudoeste 0 1006 1.1 68
2019-10-01 09:00:00 20.2 30 Oeste 43 Oeste 0 1005.3 0.6 63
2019-10-01 08:00:00 20.1 38 Oeste 44 Oeste 0 1004.9 0 66
2019-10-01 07:00:00 20.5 31 Oeste 41 Sudoeste 0 1004.9 -0.5 64
2019-10-01 06:00:00 20.2 24 Oeste 37 Oeste 0 1004.7 -1 65
2019-10-01 05:00:00 19 14 Sudoeste 24 Oeste 0 1004.9 -1.3 72
2019-10-01 04:00:00 19.1 8 Oeste 20 Oeste 0 1005.4 -1 76
2019-10-01 03:00:00 17.5 11 Sur 24 Sur 0 1005.7 -0.9 86
2019-10-01 02:00:00 18.9 10 Oeste 15 Sudoeste 0 1006.2 -0.4 85
2019-10-01 01:00:00 18.3 9 Sur 11 Sudeste 0 1006.4 -0.3 86
2019-10-01 00:00:00 18.8 8 Sudeste 15 Sudeste 0 1006.6 0.1 85
2019-09-30 23:00:00 19.3 9 Este 17 Este 0 1006.6 -0.5 84
2019-09-30 22:00:00 19.5 6 Este 12 Sudeste 0 1006.7 -0.1 85
2019-09-30 21:00:00 19.7 8 Sudeste 13 Sudeste 0 1006.5 0 85
2019-09-30 20:00:00 20.2 4 Este 17 Noroeste 0 1007.1 0.5 83
2019-09-30 19:00:00 21.3 10 Noroeste 18 Noroeste 0 1006.8 -0.1 78
2019-09-30 18:00:00 22.7 7 Este 15 Este 0 1006.5 -1 69
2019-09-30 17:00:00 23.3 10 Este 19 Este 0 1006.6 -1.6 66
2019-09-30 16:00:00 24 11 Sudeste 20 Este 0 1006.9 -1.5 62
2019-09-30 15:00:00 23.9 12 Este 18 Este 0 1007.5 -1.3 61
2019-09-30 14:00:00 23.2 6 Nordeste 18 Este 0 1008.2 -0.7 68
2019-09-30 13:00:00 23.2 13 Este 18 Este 0 1008.4 -0.6 64
2019-09-30 12:00:00 23 12 Este 15 Este 0 1008.8 0 66
2019-09-30 11:00:00 20.8 9 Este 15 Sudeste 0 1008.9 0.2 78
2019-09-30 10:00:00 20.5 9 Sudeste 15 Sudeste 0 1009 0.2 80
2019-09-30 09:00:00 18 12 Sudeste 20 Sudeste 0 1008.8 0.1 85
2019-09-30 08:00:00 17.4 9 Sudeste 14 Sudeste 0 1008.7 -0.2 87
2019-09-30 07:00:00 16.7 8 Sudeste 13 Sudeste 0 1008.8 -0.8 87
2019-09-30 06:00:00 16.9 8 Sudeste 12 Sudeste 0 1008.7 -1.1 87
2019-09-30 05:00:00 17 9 Sudeste 12 Sudeste 0 1008.9 -1.2 87
2019-09-30 04:00:00 17.6 7 Este 17 Sudeste 0 1009.6 -0.9 86
2019-09-30 03:00:00 17.8 13 Sudeste 18 Sudeste 0 1009.8 -1.2 86
2019-09-30 02:00:00 17.8 12 Sudeste 17 Sudeste 0 1010.1 -1 86
2019-09-30 01:00:00 17.8 12 Sudeste 16 Sudeste 0 1010.5 -0.3 85
2019-09-30 00:00:00 18.4 6 Sudoeste 10 Sudoeste 0 1011 0.6 83
2019-09-29 23:00:00 18.5 8 Sudoeste 14 Oeste 0 1011.1 1 84
2019-09-29 22:00:00 18.5 8 Sudoeste 17 Oeste 0 1010.8 1.4 85
2019-09-29 21:00:00 18.4 13 Oeste 30 Noroeste 0 1010.4 2 85
2019-09-29 20:00:00 18.6 18 Oeste 31 Oeste 0 1010.1 2.7 85
2019-09-29 19:00:00 19.1 20 Oeste -- -- 0 1009.4 2 83
2019-09-29 18:00:00 23.7 24 Oeste 54 Oeste 0 1008.4 0.9 62
2019-09-29 17:00:00 24.6 37 Oeste 60 Oeste 0 1007.4 -0.4 57
2019-09-29 16:00:00 24.5 42 Oeste 62 Oeste 0 1007.4 0.1 56
2019-09-29 15:00:00 24.6 38 Oeste 60 Oeste 0 1007.5 0.3 55
2019-09-29 14:00:00 24.5 39 Oeste 60 Oeste 0 1007.8 1.3 55
2019-09-29 13:00:00 23.8 41 Oeste 58 Oeste 0 1007.3 1.2 55
2019-09-29 12:00:00 24 44 Oeste 64 Oeste 0 1007.2 0.8 51
2019-09-29 11:00:00 23.7 37 Oeste 59 Oeste 0 1006.5 0.4 49
2019-09-29 10:00:00 22.9 36 Oeste 63 Oeste 0 1006.1 0.1 45
2019-09-29 09:00:00 18.8 17 Oeste 33 Oeste 0 1006.4 0.3 64
2019-09-29 08:00:00 20.3 10 Nordeste 19 Sudeste 0 1006.1 -0.5 36
2019-09-29 07:00:00 19.5 9 Sur 20 Sur 0 1006 -1.5 34
2019-09-29 06:00:00 18.2 9 Sudeste 14 Sudeste 0 1006.1 -2.1 39
2019-09-29 05:00:00 17.5 5 Sudoeste 25 Sudoeste 0 1006.6 -1.8 41
2019-09-29 04:00:00 15.7 17 Sudoeste 24 Sudoeste 0 1007.5 -1.4 62
2019-09-29 03:00:00 12.9 10 Sudoeste 18 Sudeste 0 1008.2 -1.1 83
2019-09-29 02:00:00 13.1 14 Sudeste 21 Sur 0 1008.4 -1 84
2019-09-29 01:00:00 13.5 11 Sur 18 Sur 0 1008.9 -1.2 83
2019-09-29 00:00:00 13.3 15 Sur 18 Sur 0 1009.3 -0.6 83
2019-09-28 23:00:00 14.4 12 Sudeste 18 Sudeste 0 1009.4 -0.7 81
2019-09-28 22:00:00 14.1 10 Sur 13 Sur 0 1010.1 -0.6 79
2019-09-28 21:00:00 15.2 7 Sudeste 12 Noroeste 0 1009.9 -0.8 74
2019-09-28 20:00:00 17.8 2 Este 9 Noroeste 0 1010.1 -1.1 67
2019-09-28 19:00:00 18.7 3 Nordeste 10 Nordeste 0 1010.7 -0.9 65
2019-09-28 18:00:00 19.3 4 Nordeste 9 Norte 0 1010.7 -1.2 62
2019-09-28 17:00:00 19.5 4 Nordeste 12 Oeste 0 1011.2 -1.8 63
2019-09-28 16:00:00 19.7 5 Noroeste 13 Norte 0 1011.6 -2.1 62
2019-09-28 15:00:00 19.3 5 Nordeste 9 Nordeste 0 1011.9 -2.5 62
2019-09-28 14:00:00 20 3 Oeste 9 Norte 0 1013 -1.4 60
2019-09-28 13:00:00 19.6 4 Noroeste 9 Norte 0 1013.7 -0.3 61
2019-09-28 12:00:00 18.3 5 Norte 11 Sudeste 0 1014.4 0.7 64
2019-09-28 11:00:00 17.2 5 Sudeste 18 Sur 0 1014.4 0.8 71
2019-09-28 10:00:00 14.2 15 Sudeste 23 Sur 0 1014 0.4 82
2019-09-28 09:00:00 12.2 18 Sudeste -- -- 0 1013.7 -0.4 86
2019-09-28 08:00:00 12.2 17 Sudeste -- -- 0 1013.6 -0.6 86
2019-09-28 07:00:00 12.4 17 Sudeste 21 Sur 0 1013.6 -0.7 86
2019-09-28 06:00:00 13.1 14 Sur 18 Sur 0 1014.1 -0.5 85
2019-09-28 05:00:00 13.6 14 Sur 18 Sur 0 1014.2 -0.6 84
2019-09-28 04:00:00 14.7 10 Sur 15 Sudoeste 0 1014.3 -0.5 76
2019-09-28 03:00:00 16.5 10 Sudoeste 27 Oeste 0 1014.6 0 69
2019-09-28 02:00:00 16.5 15 Oeste 27 Oeste 0 1014.8 0.2 71
2019-09-28 01:00:00 16.8 10 Oeste 26 Oeste 0 1014.8 0.5 77
2019-09-28 00:00:00 16.8 16 Oeste 29 Oeste 0 1014.6 0.9 79
2019-09-27 23:00:00 17 18 Oeste -- -- 0 1014.6 1.3 80
2019-09-27 22:00:00 17.1 -- -- -- -- 0 1014.3 1.1 79
2019-09-27 21:00:00 17.2 21 Oeste 39 Oeste 0 1013.7 0.9 76
2019-09-27 20:00:00 17.7 26 Oeste 33 Oeste 0 1013.3 0.6 77
2019-09-27 19:00:00 18.3 18 Oeste 28 Oeste 0 1013.2 0.4 75
2019-09-27 18:00:00 18.8 15 Oeste 26 Oeste 0 1012.8 0 73
2019-09-27 17:00:00 18.6 13 Oeste 24 Oeste 0 1012.7 -0.1 79
2019-09-27 16:00:00 17.6 9 Sur 28 Oeste 0 1012.8 0.4 86
2019-09-27 15:00:00 16.7 19 Oeste 36 Oeste 0.4 1012.8 1 87
2019-09-27 14:00:00 16.9 15 Oeste 31 Oeste 0.2 1012.8 1.2 86
2019-09-27 13:00:00 17.5 9 Oeste 30 Oeste 0 1012.4 1 85
2019-09-27 12:00:00 18.2 22 Oeste 33 Oeste 0 1011.8 0.7 82
2019-09-27 11:00:00 18.9 4 Noroeste 16 Oeste 0 1011.6 0.8 79
2019-09-27 10:00:00 18.3 9 Oeste 21 Noroeste 0 1011.4 1 80
2019-09-27 09:00:00 17.8 10 Oeste 23 Oeste 0 1011.1 1 78
2019-09-27 08:00:00 17.8 18 Oeste 36 Oeste 0 1010.8 0.8 79
2019-09-27 07:00:00 18.9 20 Oeste 31 Noroeste 0 1010.4 0.1 71
2019-09-27 06:00:00 19.4 18 Oeste 27 Oeste 0 1010.1 -0.7 65
2019-09-27 05:00:00 19.4 14 Oeste 26 Oeste 0 1010 -1.2 64
2019-09-27 04:00:00 19.9 5 Sur 15 Oeste 0 1010.3 -1 58
2019-09-27 03:00:00 20 3 Sudoeste 25 Sudoeste 0 1010.8 -0.7 58
2019-09-27 02:00:00 20.3 13 Sudoeste 32 Oeste 0 1011.2 -0.3 57
2019-09-27 01:00:00 20.3 22 Oeste 49 Sudoeste 0 1011.3 0.1 56
2019-09-27 00:00:00 19.6 19 Sudoeste 36 Sudoeste 0 1011.5 0.8 58
2019-09-26 23:00:00 19.2 16 Oeste 31 Sudoeste 0 1011.5 0.8 65
2019-09-26 22:00:00 19.2 11 Oeste 20 Oeste 0 1011.2 0.5 67
2019-09-26 21:00:00 18 12 Sur 19 Sudeste 0 1010.7 0.2 72
2019-09-26 20:00:00 19.1 8 Sudeste 12 Sudeste 0 1010.7 0.3 70
2019-09-26 19:00:00 20.4 5 Este 13 Norte 0 1010.7 0.2 67
2019-09-26 18:00:00 21.8 5 Oeste 19 Nordeste 0 1010.5 -0.1 62
2019-09-26 17:00:00 21.6 4 Norte 14 Este 0 1010.4 -0.5 62
2019-09-26 16:00:00 22.2 8 Este 17 Este 0 1010.5 -0.6 50
2019-09-26 15:00:00 21.2 10 Este 17 Este 0 1010.6 -0.8 53
2019-09-26 14:00:00 20.7 9 Este 16 Este 0 1010.9 -0.4 56
2019-09-26 13:00:00 20.1 10 Este 15 Este 0 1011.1 0.3 59
2019-09-26 12:00:00 20.3 6 Norte 10 Norte 0 1011.4 0.6 53
2019-09-26 11:00:00 20 3 Nordeste 13 Sudeste 0 1011.3 1 58
2019-09-26 10:00:00 15.9 9 Sur 22 Sudoeste 0 1010.8 0.5 70
2019-09-26 09:00:00 13.9 14 Sur 28 Oeste 0 1010.8 0.3 73
2019-09-26 08:00:00 17.1 19 Oeste 32 Oeste 0 1010.3 -0.2 62
2019-09-26 07:00:00 16.4 12 Sudoeste 25 Sudoeste 0 1010.3 -0.2 68
2019-09-26 06:00:00 16.6 14 Sudoeste 25 Oeste 0 1010.5 0.1 66
2019-09-26 05:00:00 16.3 12 Oeste 17 Oeste 0 1010.5 -0.1 73
2019-09-26 04:00:00 16.9 12 Oeste 30 Oeste 0 1010.5 -0.6 67
2019-09-26 03:00:00 17.2 22 Oeste 33 Oeste 0 1010.4 -0.6 68
2019-09-26 02:00:00 17.2 19 Oeste 30 Oeste 0 1010.6 -0.3 73
2019-09-26 01:00:00 17.2 13 Oeste 32 Oeste 0 1011.1 0.5 72
2019-09-26 00:00:00 18 19 Oeste 31 Noroeste 0 1011 1.1 71
2019-09-25 23:00:00 18.1 14 Oeste 24 Oeste 0 1010.9 1.4 68
2019-09-25 22:00:00 18.6 17 Oeste 37 Oeste 0 1010.6 0.9 68
2019-09-25 21:00:00 20.1 28 Oeste 45 Sudoeste 0 1009.9 0.2 58
2019-09-25 20:00:00 21 37 Oeste 48 Oeste 0 1009.5 -0.1 53
2019-09-25 19:00:00 21.9 32 Oeste 46 Oeste 0 1009.7 -0.4 52
2019-09-25 18:00:00 21.2 16 Oeste 37 Oeste 0 1009.7 -0.7 60
2019-09-25 17:00:00 21.8 18 Oeste 39 Oeste 0 1009.6 -1.2 59
2019-09-25 16:00:00 21.1 18 Oeste 43 Oeste 0 1010.1 -0.9 60
2019-09-25 15:00:00 21.1 26 Oeste 44 Oeste 0 1010.4 -0.4 56
2019-09-25 14:00:00 20.9 30 Oeste 44 Oeste 0 1010.8 -0.2 55
2019-09-25 13:00:00 20.5 36 Oeste 51 Oeste 0 1011 0.4 53
2019-09-25 12:00:00 20.4 41 Oeste 51 Oeste 0 1010.8 0.3 54
2019-09-25 11:00:00 19.6 33 Oeste 44 Oeste 0 1011 0.7 59
2019-09-25 10:00:00 18.4 30 Oeste 44 Oeste 0 1010.6 0.5 60
2019-09-25 09:00:00 17.5 30 Oeste 45 Oeste 0 1010.5 0.1 63
2019-09-25 08:00:00 17.1 31 Oeste 43 Oeste 0 1010.3 0.2 65
2019-09-25 07:00:00 16.8 30 Oeste 36 Oeste 0 1010.1 -0.2 65
2019-09-25 06:00:00 16.6 20 Oeste 37 Oeste 0 1010.4 -0.3 69
2019-09-25 05:00:00 17.1 28 Oeste 41 Oeste 0 1010.1 0.1 65
2019-09-25 04:00:00 17.1 28 Oeste 38 Oeste 0 1010.3 -0.4 65
2019-09-25 03:00:00 17.3 27 Oeste 39 Oeste 0 1010.7 0 66
2019-09-25 02:00:00 17.7 30 Oeste 40 Oeste 0 1010 -0.5 60
2019-09-25 01:00:00 17.9 31 Oeste 39 Oeste 0 1010.7 0.9 60
2019-09-25 00:00:00 17.8 31 Oeste 36 Oeste 0 1010.7 1.4 63
2019-09-24 23:00:00 17.2 21 Oeste 40 Oeste 0 1010.5 1.4 72
2019-09-24 22:00:00 17.2 29 Oeste 50 Oeste 0 1009.8 1.3 75
2019-09-24 21:00:00 17.2 28 Oeste 46 Oeste 0 1009.3 1.3 74
2019-09-24 20:00:00 17.4 30 Oeste 50 Oeste 0 1009.1 0.9 74
2019-09-24 19:00:00 18.4 29 Oeste 47 Oeste 0 1008.5 0.8 71
2019-09-24 18:00:00 18.8 31 Oeste 52 Oeste 0 1008 0 72
2019-09-24 17:00:00 19.5 26 Oeste 49 Oeste 0 1008.2 1.3 71
2019-09-24 16:00:00 19.3 32 Oeste 47 Oeste 0 1007.7 0 73
2019-09-24 15:00:00 19.3 25 Oeste 73 Oeste 0 1008 0.3 73
2019-09-24 14:00:00 21.8 47 Oeste 68 Oeste 0 1006.9 -0.6 54
2019-09-24 13:00:00 20 29 Oeste 42 Oeste 0 1007.7 0.7 73
2019-09-24 12:00:00 19.6 25 Oeste 38 Oeste 0 1007.7 1.2 78
2019-09-24 11:00:00 18.5 20 Oeste 36 Oeste 0 1007.5 2.7 84
2019-09-24 10:00:00 17.9 11 Oeste -- -- 0.2 1007 3.3 88
2019-09-24 09:00:00 17.5 27 Oeste 63 Oeste 0.2 1006.5 3.2 86
2019-09-24 08:00:00 21.6 41 Oeste 63 Oeste 0 1004.8 1.2 64
2019-09-24 07:00:00 22.1 49 Oeste 76 Oeste 0 1003.7 0.4 61
2019-09-24 06:00:00 22.3 50 Oeste 75 Sudoeste 0.2 1003.3 -0.2 60
2019-09-24 05:00:00 22.4 38 Oeste 56 Oeste 0 1003.6 -0.4 59
2019-09-24 04:00:00 22.3 37 Oeste 53 Oeste 0 1003.3 -1.4 59
2019-09-24 03:00:00 22.7 20 Oeste -- -- 0 1003.5 -1.7 58
2019-09-24 02:00:00 23.2 9 Sudoeste 32 Oeste 0 1004 -2 56
2019-09-24 01:00:00 22.3 12 Oeste 23 Sudoeste 0 1004.7 -1.6 61
2019-09-24 00:00:00 21.4 11 Oeste 27 Sudoeste 0 1005.2 -1.6 64
2019-09-23 23:00:00 19.8 9 Sudoeste 23 Oeste 0 1006 -1.2 73
2019-09-23 22:00:00 18.3 4 Nordeste 10 Sudoeste 0 1006.3 -1.1 80
2019-09-23 21:00:00 18 7 Sur 18 Este 0 1006.8 -0.5 84
2019-09-23 20:00:00 18 11 Este 14 Este 0 1007.2 -0.6 82
2019-09-23 19:00:00 18.3 6 Sudeste 15 Sudeste 0 1007.4 -0.6 83
2019-09-23 18:00:00 17.6 13 Este 19 Sudeste 0 1007.3 -1 80
2019-09-23 17:00:00 17.9 10 Este 15 Este 0 1007.8 -1 78
2019-09-23 16:00:00 17.5 12 Este 43 Norte 0 1008 -0.8 72
2019-09-23 15:00:00 17.8 10 Este 15 Este 0 1008.3 -0.8 70
2019-09-23 14:00:00 19 5 Nordeste 16 Este 0 1008.8 -0.5 64
2019-09-23 13:00:00 19.7 3 Nordeste 8 Norte 0 1008.8 -1.1 62
2019-09-23 12:00:00 19.7 6 Sudeste 23 Sudeste 0 1009.1 -0.4 62
2019-09-23 11:00:00 17.3 12 Sudeste 17 Sudeste 0 1009.3 0.6 70
2019-09-23 10:00:00 17.2 7 Sudeste 11 Sudeste 0 1009.9 0.8 67
2019-09-23 09:00:00 16.4 2 Oeste 8 Sudoeste 0 1009.5 -0.3 66
2019-09-23 08:00:00 16.3 5 Sudoeste 26 Sudeste 0 1008.7 -1 67
2019-09-23 07:00:00 14.7 16 Sudeste 20 Sudeste 0 1009.1 -0.7 77
2019-09-23 06:00:00 15.1 13 Sur 21 Sudoeste 0 1009.8 0 74
2019-09-23 05:00:00 14.5 13 Sur 19 Sudoeste 0 1009.7 0.1 78
2019-09-23 04:00:00 14.8 12 Sudoeste 20 Sudoeste 0 1009.8 0.1 76
2019-09-23 03:00:00 14 12 Sur 18 Sur 0 1009.8 0 82
2019-09-23 02:00:00 14.4 10 Sur 21 Sudeste 0 1009.6 0.1 82
2019-09-23 01:00:00 14.4 15 Sudeste 21 Sudeste 0 1009.7 0.5 83
2019-09-23 00:00:00 14.7 12 Sur 22 Sudeste 0 1009.8 1.3 83
2019-09-22 23:00:00 15.3 14 Sudeste 18 Sudeste 0 1009.5 1.4 84
2019-09-22 22:00:00 15.1 11 Sudeste 14 Sudeste 0 1009.2 1.2 83
2019-09-22 21:00:00 16.6 6 Este 13 Sudeste 0 1008.5 1.1 80
2019-09-22 20:00:00 17.3 5 Sudeste 13 Oeste 0 1008.1 1 80
2019-09-22 19:00:00 17.2 9 Sudoeste 19 Oeste 1 1008 2.5 80
2019-09-22 18:00:00 17.5 14 Oeste 28 Oeste 1.2 1007.4 2 78
2019-09-22 17:00:00 17.9 21 Oeste 42 Noroeste 0 1007.1 1.8 75
2019-09-22 16:00:00 18.2 36 Oeste 52 Oeste 0 1005.5 0.7 72
2019-09-22 15:00:00 21.9 42 Oeste 57 Oeste 0 1005.4 0.6 45
2019-09-22 14:00:00 21.2 37 Oeste 63 Oeste 0 1005.3 1 44
2019-09-22 13:00:00 20.6 42 Oeste 72 Oeste 0 1004.8 1.2 49
2019-09-22 12:00:00 19.5 37 Oeste 59 Oeste 0 1004.8 1.7 52
2019-09-22 11:00:00 18.9 44 Oeste 60 Oeste 0 1004.3 2.2 53
2019-09-22 10:00:00 18.2 40 Oeste 60 Sudoeste 0 1003.6 2.6 54
2019-09-22 09:00:00 17.4 31 Oeste 52 Oeste 0 1003.1 2.4 58
2019-09-22 08:00:00 17.4 30 Oeste 50 Oeste 0 1002.1 1.6 58
2019-09-22 07:00:00 17.2 34 Oeste 45 Oeste 0 1001 0.8 62
2019-09-22 06:00:00 17.1 23 Oeste 38 Oeste 0 1000.7 1.1 67
2019-09-22 05:00:00 17.9 41 Oeste 54 Oeste 0 1000.5 1.3 64
2019-09-22 04:00:00 17.6 33 Oeste 58 Oeste 0 1000.2 1 67
2019-09-22 03:00:00 17.9 39 Oeste 55 Oeste 0 999.6 0.6 64
2019-09-22 02:00:00 17.9 24 Oeste 47 Oeste 0 999.2 0.8 62
2019-09-22 01:00:00 16.7 17 Oeste 40 Oeste 0 999.2 0.2 68
2019-09-22 00:00:00 17.1 19 Oeste 53 Oeste 0 999 1.5 68
2019-09-21 23:00:00 17.3 35 Oeste 48 Oeste 0.4 998.4 1.4 68
2019-09-21 22:00:00 17 12 Sudoeste 42 Noroeste 1.6 999 2.7 91
2019-09-21 21:00:00 16.1 28 Oeste 62 Noroeste 2 997.5 1.7 91
2019-09-21 20:00:00 17.9 12 Oeste 28 Oeste 0.8 997 0.4 88
2019-09-21 19:00:00 18.5 8 Oeste 23 Este 0 996.3 -0.6 83
2019-09-21 18:00:00 19.1 15 Este 24 Este 0 995.8 -1.3 80
2019-09-21 17:00:00 19.2 12 Sudeste 21 Este 0 996.6 -1.2 81
2019-09-21 16:00:00 19.8 8 Nordeste 27 Noroeste 0.4 996.9 -1.1 76
2019-09-21 15:00:00 20.9 5 Este 10 Este 0 997.1 -1.5 74
2019-09-21 14:00:00 20.4 6 Oeste 15 Oeste 0 997.8 -1.3 76
2019-09-21 13:00:00 20.8 8 Sudeste 21 Sudeste 0 998 -1.2 77
2019-09-21 12:00:00 18.8 14 Sudeste 22 Sudeste 0.2 998.6 -0.5 84
2019-09-21 11:00:00 18.1 14 Sudeste 22 Sur 0.2 999.1 0.1 86
2019-09-21 10:00:00 18.4 14 Sudeste 22 Sudeste 0 999.2 -0.1 85
2019-09-21 09:00:00 17 10 Sur 21 Sudeste 0 999.1 -1.1 89
2019-09-21 08:00:00 16.6 12 Este 23 Sudeste 0 999 -1.2 89
2019-09-21 07:00:00 16.8 16 Sudeste 26 Sudeste 0 999.3 -1.9 90
2019-09-21 06:00:00 15.9 5 Sudeste 19 Este 0 1000.2 -1.9 90
2019-09-21 05:00:00 16.5 17 Este 24 Este 0 1000.2 -1.9 91
2019-09-21 04:00:00 16.3 10 Este 18 Este 0 1001.2 -0.9 91
2019-09-21 03:00:00 16 4 Sur 9 Oeste 0 1002.1 -0.3 90
2019-09-21 02:00:00 16.1 4 Oeste 12 Sudeste 0 1002.1 -1 90
2019-09-21 01:00:00 16 6 Sudoeste 12 Sudeste 0 1002.1 -1.6 89
2019-09-21 00:00:00 16.6 9 Sudeste -- -- 0 1002.4 -1 89
2019-09-20 23:00:00 16.8 -- -- -- -- 0 1003.1 0 89
2019-09-20 22:00:00 16.8 -- -- -- -- 0 1003.7 0.6 90
2019-09-20 21:00:00 16.3 -- -- -- -- 2 1003.4 0.7 91
2019-09-20 20:00:00 16.1 27 Oeste -- -- 3.6 1003.1 -0.1 91
2019-09-20 19:00:00 15.9 30 Oeste 37 Oeste 1.4 1003.1 -0.6 90
2019-09-20 18:00:00 16 28 Oeste 39 Oeste 0 1002.7 -1.4 89
2019-09-20 17:00:00 16.7 16 Oeste 28 Oeste 0 1003.2 -1.2 88
2019-09-20 16:00:00 17.3 18 Oeste 29 Oeste 0 1003.7 -1.1 85
2019-09-20 15:00:00 18.7 10 Oeste 16 Oeste 0 1004.1 -1 82
2019-09-20 14:00:00 18.9 11 Oeste 15 Noroeste 0 1004.4 -1 83
2019-09-20 13:00:00 18.6 9 Oeste 14 Oeste 0 1004.8 -0.6 84
2019-09-20 12:00:00 18.2 10 Oeste 15 Oeste 0 1005.1 0.1 85
2019-09-20 11:00:00 17.2 12 Oeste 15 Oeste 0 1005.4 0.5 89
2019-09-20 10:00:00 16.4 10 Oeste 13 Oeste 0 1005.4 0 90
2019-09-20 09:00:00 15.4 6 Sudeste 9 Este 0 1005 -0.6 91
2019-09-20 08:00:00 15.4 7 Este 9 Sudeste 0 1004.9 -1.2 91
2019-09-20 07:00:00 14.9 6 Sudeste 8 Sudeste 0 1005.4 -1.5 90
2019-09-20 06:00:00 15.1 6 Sudeste 8 Sudeste 0 1005.6 -1.9 90
2019-09-20 05:00:00 16 3 Este 10 Oeste 0 1006.1 -1.7 89
2019-09-20 04:00:00 16.4 9 Oeste -- -- 0 1006.9 -1.3 88
2019-09-20 03:00:00 16.3 -- -- -- -- 0 1007.5 -1.4 88
2019-09-20 02:00:00 16.2 4 Sur 19 Este 0 1007.8 -1.3 86
2019-09-20 01:00:00 17 10 Este -- -- 0 1008.2 -0.8 86
2019-09-20 00:00:00 16.8 15 Este -- -- 0 1008.9 0.1 86
2019-09-19 23:00:00 17 17 Este -- -- 0 1009.1 0.6 85
2019-09-19 22:00:00 16.8 17 Este -- -- 0 1009 0.4 87
2019-09-19 21:00:00 17.1 22 Nordeste 40 Nordeste 0 1008.8 0 86
2019-09-19 20:00:00 17.3 22 Nordeste 37 Nordeste 0 1008.5 -0.8 85
2019-09-19 19:00:00 17.9 21 Nordeste 41 Nordeste 0 1008.6 -1 83
2019-09-19 18:00:00 18.4 23 Nordeste 44 Nordeste 0 1008.8 -1.3 81
2019-09-19 17:00:00 18.7 22 Nordeste 39 Nordeste 0 1009.3 -1.4 80
2019-09-19 16:00:00 19 22 Nordeste 39 Nordeste 0 1009.6 -1.6 80
2019-09-19 15:00:00 19.3 25 Nordeste 36 Nordeste 0 1010.1 -1.3 79
2019-09-19 14:00:00 19.5 16 Nordeste 31 Nordeste 0 1010.7 -0.8 80
2019-09-19 13:00:00 19.6 18 Este 31 Este 0 1011.2 0 79
2019-09-19 12:00:00 19.1 18 Este 31 Nordeste 0 1011.4 0.6 80
2019-09-19 11:00:00 18.8 13 Este 26 Nordeste 0 1011.5 0.9 81
2019-09-19 10:00:00 18.5 13 Este 22 Este 0 1011.2 0.7 83
2019-09-19 09:00:00 17.5 12 Este 21 Este 0 1010.8 0.3 88
2019-09-19 08:00:00 17.3 10 Este 19 Este 0 1010.6 -0.3 89
2019-09-19 07:00:00 17.4 14 Este 22 Nordeste 0 1010.5 -0.6 89
2019-09-19 06:00:00 17.2 12 Este 28 Este 0 1010.5 -1.1 89
2019-09-19 05:00:00 17.4 11 Este 17 Este 0 1010.9 -0.7 88
2019-09-19 04:00:00 17.7 9 Nordeste 20 Este 0 1011.1 -0.7 88
2019-09-19 03:00:00 17.7 14 Este 39 Este 0 1011.6 -0.2 88
2019-09-19 02:00:00 17.5 27 Este 40 Este 0 1011.6 -0.1 89
2019-09-19 01:00:00 17.5 19 Nordeste 34 Nordeste 0 1011.8 0.3 89
2019-09-19 00:00:00 17.5 18 Nordeste 32 Nordeste 0 1011.8 0.8 89
2019-09-18 23:00:00 17.7 18 Nordeste 37 Nordeste 0 1011.7 1.1 88
2019-09-18 22:00:00 17.9 18 Nordeste 40 Nordeste 0 1011.5 1.1 88
2019-09-18 21:00:00 18.1 18 Nordeste 36 Nordeste 0 1011 0.8 87
2019-09-18 20:00:00 18.3 20 Nordeste 38 Este 0 1010.6 0.4 87
2019-09-18 19:00:00 18.8 22 Nordeste 38 Este 0 1010.4 -0.1 85
2019-09-18 18:00:00 19.5 19 Nordeste 40 Nordeste 0 1010.2 -0.6 85
2019-09-18 17:00:00 19.8 20 Nordeste 33 Este 0 1010.2 -0.7 85
2019-09-18 16:00:00 20.3 13 Nordeste 23 Nordeste 0 1010.5 -0.5 83
2019-09-18 15:00:00 20.3 3 Nordeste 50 Noroeste 0 1010.8 0.1 81
2019-09-18 14:00:00 19.8 5 Este 14 Este 0 1010.9 0.4 82
2019-09-18 13:00:00 19 9 Este 19 Nordeste 0 1011 0.7 85
2019-09-18 12:00:00 19.4 7 Sudeste 17 Sudeste 0 1010.7 0.9 84
2019-09-18 11:00:00 18 13 Sudeste 17 Sudeste 0 1010.5 1.4 86
2019-09-18 10:00:00 17 9 Sudeste 17 Sudeste 0 1010.3 1.4 89
2019-09-18 09:00:00 16.5 13 Sudeste 17 Sudeste 0 1009.8 1.2 90
2019-09-18 08:00:00 16.1 15 Sur 19 Sur 0 1009.1 0.6 90
2019-09-18 07:00:00 16.2 13 Sur 15 Sur 0 1008.9 0.5 90
2019-09-18 06:00:00 16.4 10 Sur 18 Sur 0 1008.6 -0.5 89
2019-09-18 05:00:00 16.9 7 Sudeste 17 Sudeste 0 1008.5 -0.7 88
2019-09-18 04:00:00 17.3 9 Sudeste 18 Sudeste 0 1008.4 -1.4 88
2019-09-18 03:00:00 18.2 10 Sudeste 21 Sudeste 0 1009.1 -0.8 88
2019-09-18 02:00:00 17.9 11 Sudeste 17 Sudeste 0 1009.2 -0.6 89
2019-09-18 01:00:00 18.4 12 Sudeste 17 Sudeste 0 1009.8 0.4 89
2019-09-18 00:00:00 19 9 Este 18 Este 0 1009.9 0.9 88
2019-09-17 23:00:00 18.9 12 Este 28 Este 0.8 1009.8 0.1 90
2019-09-17 22:00:00 19.2 11 Sudeste 31 Este 4.2 1009.4 -0.5 88
2019-09-17 21:00:00 19.6 -- -- -- -- 2 1009 -0.5 88
2019-09-15 18:00:00 21.5 2 Nordeste 9 Oeste 0 1012.6 -0.8 78
2019-09-15 17:00:00 21.9 5 Oeste 11 Norte 0 1012.8 -1 75
2019-09-15 16:00:00 20.9 5 Nordeste 9 Nordeste 0 1013.3 -1.5 77
2019-09-15 15:00:00 21.1 5 Oeste 8 Oeste 0 1013.4 -1.6 76
2019-09-15 14:00:00 20.8 4 Noroeste 6 Norte 0 1013.8 -1.3 78
2019-09-15 13:00:00 20.1 4 Norte 7 Norte 0 1014.8 0.2 82
2019-09-15 12:00:00 19.8 4 Noroeste 10 Noroeste 0 1015 0.7 84
2019-09-15 11:00:00 18.8 3 Oeste 12 Oeste 0 1015.1 0.8 88
2019-09-15 10:00:00 18 6 Sudoeste 10 Sur 0 1014.6 0.3 88
2019-09-15 09:00:00 17.6 7 Sur 11 Sur 0 1014.3 -0.1 89
2019-09-15 08:00:00 17.4 11 Sudeste 22 Sudeste 0 1014.3 -0.2 90
2019-09-15 07:00:00 16.9 12 Sudeste 15 Sudeste 0 1014.3 -0.5 91
2019-09-15 06:00:00 16.6 9 Sur 15 Sur 0 1014.4 -0.5 91
2019-09-15 05:00:00 16.4 6 Sudoeste 12 Oeste 0 1014.5 -0.7 90
2019-09-15 04:00:00 17 3 Sudoeste 8 Sudeste 0 1014.8 -0.7 89
2019-09-15 03:00:00 18 8 Este 13 Sudeste 0 1014.9 -0.8 88
2019-09-15 02:00:00 18 10 Sudeste -- -- 0 1015.2 -0.9 89
2019-09-15 01:00:00 18.4 8 Sudeste 10 Sudeste 0 1015.5 -0.4 89
2019-09-15 00:00:00 18.5 4 Este 9 Sudeste 0 1015.7 -0.1 88